createdAt,value
2022-11-15T00:02:11.252Z,9.90
2022-11-15T00:05:00.642Z,9.90
2022-11-15T00:07:55.674Z,9.80
2022-11-15T00:10:57.401Z,9.80
2022-11-15T00:13:46.708Z,9.90
2022-11-15T00:16:36.138Z,10.00
2022-11-15T00:19:25.131Z,10.20
2022-11-15T00:22:14.344Z,10.30
2022-11-15T00:25:04.424Z,10.40
2022-11-15T00:27:58.004Z,10.50
2022-11-15T00:30:47.442Z,10.60
2022-11-15T00:33:38.483Z,10.70
2022-11-15T00:36:27.982Z,10.80
2022-11-15T00:39:17.538Z,10.80
2022-11-15T00:42:06.781Z,10.90
2022-11-15T00:44:58.060Z,11.00
2022-11-15T00:47:47.767Z,11.00
2022-11-15T00:50:36.980Z,10.90
2022-11-15T00:53:26.006Z,10.50
2022-11-15T00:56:14.564Z,10.60
2022-11-15T00:59:03.504Z,10.60
2022-11-15T01:01:54.220Z,10.70
2022-11-15T01:04:43.657Z,10.80
2022-11-15T01:07:33.213Z,10.60
2022-11-15T01:10:22.725Z,10.30
2022-11-15T01:13:11.822Z,10.30
2022-11-15T01:16:01.509Z,10.00
2022-11-15T01:18:53.119Z,9.80
2022-11-15T01:21:42.455Z,9.80
2022-11-15T01:24:31.813Z,9.90
2022-11-15T01:27:21.177Z,9.90
2022-11-15T01:30:11.557Z,9.60
2022-11-15T01:33:01.128Z,9.40
2022-11-15T01:35:51.783Z,9.20
2022-11-15T01:38:40.952Z,9.40
2022-11-15T01:41:32.504Z,9.40
2022-11-15T01:44:44.332Z,9.40
2022-11-15T01:47:37.515Z,9.50
2022-11-15T01:50:30.844Z,9.60
2022-11-15T01:53:24.491Z,9.60
2022-11-15T07:50:08.661Z,11.20
2022-11-15T07:52:59.848Z,11.30
2022-11-15T07:55:48.476Z,11.40
2022-11-15T07:58:37.274Z,11.40
2022-11-15T08:01:26.041Z,11.40
2022-11-15T08:04:14.941Z,11.40
2022-11-15T08:07:03.563Z,11.40
2022-11-15T08:09:55.873Z,11.50
2022-11-15T08:12:45.089Z,11.40
2022-11-15T08:15:35.276Z,11.50
2022-11-15T08:18:24.503Z,11.50
2022-11-15T08:21:18.499Z,11.40
2022-11-15T08:24:08.938Z,11.00
2022-11-15T08:26:59.726Z,11.00
2022-11-15T08:29:51.214Z,11.00
2022-11-15T08:32:40.260Z,11.10
2022-11-15T08:35:30.493Z,11.30
2022-11-15T08:38:19.997Z,11.40
2022-11-15T08:41:09.372Z,11.60
2022-11-15T08:44:00.265Z,11.60
2022-11-15T08:46:49.158Z,11.70
2022-11-15T08:49:38.805Z,11.70
2022-11-15T08:52:27.995Z,11.80
2022-11-15T08:55:17.775Z,11.80
2022-11-15T08:58:06.880Z,11.80
2022-11-15T09:00:57.516Z,11.80
2022-11-15T09:03:46.484Z,11.80
2022-11-15T09:06:36.317Z,11.90
2022-11-15T09:09:28.513Z,11.80
2022-11-15T09:12:17.976Z,11.60
2022-11-15T09:15:08.618Z,11.60
2022-11-15T09:18:00.816Z,11.70
2022-11-15T09:20:50.075Z,11.70
2022-11-15T09:23:39.562Z,11.70
2022-11-15T09:26:28.817Z,11.70
2022-11-15T09:29:17.540Z,11.70
2022-11-15T09:32:07.231Z,11.80
2022-11-15T09:34:57.776Z,12.10
2022-11-15T09:37:49.114Z,12.00
2022-11-15T09:40:41.248Z,12.00
2022-11-15T09:43:39.131Z,12.10
2022-11-15T09:46:40.380Z,12.10
2022-11-15T09:49:31.728Z,12.20
2022-11-15T09:52:24.103Z,12.20
2022-11-15T09:55:22.360Z,12.20
2022-11-15T09:58:24.319Z,12.30
2022-11-15T10:01:20.259Z,12.30
2022-11-15T10:04:11.888Z,12.30
2022-11-15T10:07:11.889Z,12.40
2022-11-15T10:10:11.706Z,12.40
2022-11-15T10:13:01.072Z,12.40
2022-11-15T10:15:51.582Z,12.40
2022-11-15T10:18:52.359Z,12.40
2022-11-15T10:21:51.107Z,12.40
2022-11-15T10:24:44.433Z,12.50
2022-11-15T10:27:35.397Z,12.50
2022-11-15T10:30:25.052Z,12.50
2022-11-15T10:33:26.811Z,12.50
2022-11-15T10:36:21.845Z,12.50
2022-11-15T10:39:14.968Z,12.50
2022-11-15T10:42:19.361Z,12.50
2022-11-15T10:45:26.315Z,12.60
2022-11-15T10:48:26.347Z,12.60
2022-11-15T10:51:27.021Z,12.60
2022-11-15T10:54:26.637Z,12.60
2022-11-15T10:57:18.257Z,12.70
2022-11-15T11:00:28.419Z,12.70
2022-11-15T11:03:36.751Z,12.70
2022-11-15T11:06:26.014Z,12.70
2022-11-15T11:09:30.819Z,12.70
2022-11-15T11:12:31.166Z,12.60
2022-11-15T11:15:21.385Z,12.60
2022-11-15T11:18:17.144Z,12.70
2022-11-15T11:21:14.211Z,12.70
2022-11-15T11:24:13.517Z,12.70
2022-11-15T11:27:15.285Z,12.70
2022-11-15T11:30:11.520Z,12.70
2022-11-15T11:33:16.240Z,12.70
2022-11-15T11:36:22.234Z,12.70
2022-11-15T11:39:25.960Z,12.70
2022-11-15T11:42:24.196Z,12.70
2022-11-15T11:45:21.315Z,12.70
2022-11-15T11:48:15.176Z,12.70
2022-11-15T11:51:09.784Z,12.70
2022-11-15T11:54:03.573Z,12.60
2022-11-15T11:56:55.022Z,12.70
2022-11-15T11:59:49.669Z,12.70
2022-11-15T12:02:43.997Z,12.70
2022-11-15T12:05:39.488Z,12.70
2022-11-15T12:08:38.786Z,12.50
2022-11-15T12:11:35.350Z,12.60
2022-11-15T12:14:32.470Z,12.60
2022-11-15T12:17:26.181Z,12.60
2022-11-15T12:20:20.658Z,12.70
2022-11-15T12:23:16.411Z,12.70
2022-11-15T12:26:10.618Z,12.60
2022-11-15T12:29:07.845Z,12.70
2022-11-15T12:32:01.070Z,12.70
2022-11-15T12:34:52.661Z,12.70
2022-11-15T12:37:52.807Z,12.70
2022-11-15T12:41:02.718Z,12.70
2022-11-15T12:43:53.843Z,12.70
2022-11-15T12:47:03.023Z,12.80
2022-11-15T12:49:53.092Z,12.80
2022-11-15T12:53:20.531Z,12.80
2022-11-15T12:56:24.431Z,12.80
2022-11-15T12:59:51.027Z,12.80
2022-11-15T13:02:42.957Z,12.80
2022-11-15T13:06:31.972Z,12.80
2022-11-15T13:09:56.789Z,12.70
2022-11-15T13:12:58.182Z,12.80
2022-11-15T13:16:00.180Z,12.70
2022-11-15T13:18:56.675Z,12.70
2022-11-15T13:22:08.954Z,12.80
2022-11-15T13:24:58.299Z,12.80
2022-11-15T13:27:48.663Z,12.80
2022-11-15T13:30:38.290Z,12.80
2022-11-15T13:33:36.213Z,12.70
2022-11-15T13:36:30.051Z,12.80
2022-11-15T13:39:29.185Z,12.80
2022-11-15T13:42:19.299Z,12.80
2022-11-15T13:45:15.102Z,12.80
2022-11-15T13:48:07.531Z,12.80
2022-11-15T13:50:59.520Z,12.70
2022-11-15T13:53:58.213Z,12.70
2022-11-15T13:56:50.409Z,12.80
2022-11-15T13:59:47.942Z,12.70
2022-11-15T14:02:38.611Z,12.70
2022-11-15T14:05:27.626Z,12.70
2022-11-15T14:08:26.417Z,12.70
2022-11-15T14:11:19.841Z,12.70
2022-11-15T14:14:16.702Z,12.70
2022-11-15T14:17:06.012Z,12.70
2022-11-15T14:19:54.979Z,12.50
2022-11-15T14:22:55.913Z,12.60
2022-11-15T14:25:55.940Z,12.60
2022-11-15T14:28:45.700Z,12.60
2022-11-15T14:31:34.487Z,12.60
2022-11-15T14:34:23.726Z,12.50
2022-11-15T14:37:22.927Z,12.50
2022-11-15T14:40:15.890Z,12.50
2022-11-15T14:43:06.296Z,12.50
2022-11-15T14:45:55.350Z,12.50
2022-11-15T14:48:45.069Z,12.40
2022-11-15T14:51:34.647Z,12.40
2022-11-15T14:54:23.840Z,12.40
2022-11-15T14:57:12.874Z,12.40
2022-11-15T15:00:04.440Z,12.40
2022-11-15T15:02:55.715Z,12.40
2022-11-15T15:05:46.807Z,12.40
2022-11-15T15:08:36.146Z,12.40
2022-11-15T15:11:27.375Z,12.50
2022-11-15T15:14:17.365Z,12.50
2022-11-15T15:17:08.740Z,12.50
2022-11-15T15:19:57.582Z,12.50
2022-11-15T15:22:47.331Z,12.50
2022-11-15T15:25:37.626Z,12.50
2022-11-15T15:28:31.434Z,12.50
2022-11-15T15:31:23.039Z,12.50
2022-11-15T15:34:16.939Z,12.40
2022-11-15T15:37:25.901Z,12.50
2022-11-15T15:40:19.000Z,12.50
2022-11-15T15:43:10.438Z,12.40
2022-11-15T15:45:59.962Z,12.40
2022-11-15T15:48:49.633Z,12.50
2022-11-15T15:51:40.522Z,12.40
2022-11-15T15:54:29.462Z,12.50
2022-11-15T15:57:18.879Z,12.50
2022-11-15T16:00:09.127Z,12.40
2022-11-15T16:02:58.131Z,12.40
2022-11-15T16:05:47.703Z,12.40
2022-11-15T16:09:00.252Z,12.40
2022-11-15T16:11:49.317Z,12.40
2022-11-15T16:14:38.624Z,12.40
2022-11-15T16:17:34.109Z,12.40
2022-11-15T16:20:33.508Z,12.40
2022-11-15T16:23:24.896Z,12.40
2022-11-15T16:26:22.721Z,12.40
2022-11-15T16:29:12.809Z,12.40
2022-11-15T16:32:02.022Z,12.40
2022-11-15T16:34:51.411Z,12.40
2022-11-15T16:37:41.602Z,12.40
2022-11-15T16:40:32.866Z,12.40
2022-11-15T16:43:23.356Z,12.40
2022-11-15T16:46:18.135Z,12.40
2022-11-15T16:49:10.202Z,12.40
2022-11-15T16:51:58.855Z,12.40
2022-11-15T16:54:48.447Z,12.30
2022-11-15T16:57:37.836Z,12.40
2022-11-15T17:00:28.551Z,12.40
2022-11-15T17:03:18.066Z,12.40
2022-11-15T17:06:07.935Z,12.40
2022-11-15T17:08:58.926Z,12.40
2022-11-15T17:11:48.986Z,12.40
2022-11-15T17:14:38.713Z,12.40
2022-11-15T17:17:29.773Z,12.40
2022-11-15T17:20:21.280Z,12.40
2022-11-15T17:23:14.902Z,12.40
2022-11-15T17:26:28.380Z,12.40
2022-11-15T17:29:14.906Z,12.40
2022-11-15T17:32:04.542Z,12.30
2022-11-15T17:34:55.249Z,12.30
2022-11-15T17:37:44.928Z,12.30
2022-11-15T17:40:34.508Z,12.30
2022-11-15T17:43:24.014Z,12.20
2022-11-15T17:46:15.238Z,12.30
2022-11-15T17:49:04.283Z,12.30
2022-11-15T17:51:55.890Z,12.20
2022-11-15T17:54:45.158Z,12.40
2022-11-15T17:57:34.444Z,12.30
2022-11-15T18:00:23.837Z,12.30
2022-11-15T18:03:13.132Z,12.30
2022-11-15T18:06:02.304Z,12.30
2022-11-15T18:08:53.943Z,12.30
2022-11-15T18:11:46.821Z,13.10
2022-11-15T18:14:36.399Z,12.30
2022-11-15T18:17:26.158Z,12.30
2022-11-15T18:20:15.679Z,12.30
2022-11-15T18:23:04.503Z,12.30
2022-11-15T18:25:55.937Z,12.50
2022-11-15T18:28:46.455Z,12.30
2022-11-15T18:31:35.534Z,12.30
2022-11-15T18:34:25.532Z,12.30
2022-11-15T18:37:14.966Z,12.30
2022-11-15T18:40:04.086Z,12.30
2022-11-15T18:42:56.749Z,12.30
2022-11-15T18:45:45.823Z,12.30
2022-11-15T18:48:37.293Z,12.30
2022-11-15T18:51:28.344Z,12.30
2022-11-15T18:54:19.178Z,12.40
2022-11-15T18:57:08.416Z,12.40
2022-11-15T18:59:59.665Z,12.30
2022-11-15T19:02:48.462Z,12.40
2022-11-15T19:05:37.643Z,12.30
2022-11-15T19:08:26.269Z,12.30
2022-11-15T19:11:16.872Z,12.30
2022-11-15T19:14:07.596Z,12.20
2022-11-15T19:16:59.156Z,12.20
2022-11-15T19:19:47.726Z,12.20
2022-11-15T19:22:36.298Z,12.30
2022-11-15T19:25:28.835Z,12.30
2022-11-15T19:28:18.538Z,12.30
2022-11-15T19:31:08.705Z,12.30
2022-11-15T19:34:00.999Z,12.30
2022-11-15T19:36:50.532Z,12.30
2022-11-15T19:39:41.171Z,12.30
2022-11-15T19:42:30.565Z,12.30
2022-11-15T19:45:19.571Z,12.30
2022-11-15T19:48:09.635Z,12.30
2022-11-15T19:51:02.543Z,12.30
2022-11-15T19:53:53.461Z,12.30
2022-11-15T19:56:42.731Z,12.30
2022-11-15T19:59:31.596Z,12.30
2022-11-15T20:02:20.448Z,12.30
2022-11-15T20:05:14.220Z,12.30
2022-11-15T20:08:09.915Z,12.30
2022-11-15T20:10:59.226Z,12.30
2022-11-15T20:13:49.507Z,12.30
2022-11-15T20:16:38.996Z,12.30
2022-11-15T20:19:28.439Z,12.30
2022-11-15T20:22:17.924Z,12.30
2022-11-15T20:25:09.511Z,12.30
2022-11-15T20:27:59.130Z,12.40
2022-11-15T20:30:49.416Z,12.30
2022-11-15T20:33:38.732Z,12.40
2022-11-15T20:36:27.819Z,12.30
2022-11-15T20:39:16.914Z,12.30
2022-11-15T20:42:08.843Z,12.30
2022-11-15T20:44:58.299Z,12.40
2022-11-15T20:47:47.452Z,12.40
2022-11-15T20:50:42.515Z,12.40
2022-11-15T20:53:32.540Z,12.40
2022-11-15T20:56:23.198Z,12.40
2022-11-15T20:59:14.024Z,12.40
2022-11-15T21:02:03.648Z,12.40
2022-11-15T21:04:53.168Z,12.40
2022-11-15T21:07:42.731Z,12.40
2022-11-15T21:10:48.730Z,12.40
2022-11-15T21:13:38.284Z,12.40
2022-11-15T21:16:29.414Z,12.40
2022-11-15T21:19:22.680Z,12.40
2022-11-15T21:22:15.761Z,12.40
2022-11-15T21:25:05.545Z,12.40
2022-11-15T21:27:54.919Z,12.40
2022-11-15T21:30:43.645Z,12.40
2022-11-15T21:33:36.232Z,12.40
2022-11-15T21:36:26.063Z,12.40
2022-11-15T21:39:15.363Z,12.40
2022-11-15T21:42:05.065Z,12.40
2022-11-15T21:44:54.216Z,12.40
2022-11-15T21:47:46.479Z,12.40
2022-11-15T21:50:37.051Z,12.40
2022-11-15T21:53:26.612Z,12.40
2022-11-15T21:56:16.011Z,12.40
2022-11-15T21:59:05.294Z,12.40
2022-11-15T22:02:11.536Z,12.40
2022-11-15T22:05:01.195Z,12.40
2022-11-15T22:07:52.270Z,12.40
2022-11-15T22:10:41.878Z,12.40
2022-11-15T22:13:30.963Z,12.30
2022-11-15T22:16:20.460Z,12.30
2022-11-15T22:19:10.236Z,12.30
2022-11-15T22:22:00.356Z,12.30
2022-11-15T22:24:51.440Z,12.30
2022-11-15T22:27:40.434Z,12.30
2022-11-15T22:30:29.712Z,12.40
2022-11-15T22:33:20.255Z,12.40
2022-11-15T22:36:10.342Z,12.40
2022-11-15T22:38:59.454Z,12.40
2022-11-15T22:41:50.417Z,12.40
2022-11-15T22:44:39.754Z,12.40
2022-11-15T22:47:30.408Z,12.40
2022-11-15T22:50:20.883Z,12.40
2022-11-15T22:53:11.425Z,12.40
2022-11-15T22:56:01.772Z,12.40
2022-11-15T22:58:52.287Z,12.40
2022-11-15T23:01:41.495Z,12.40
2022-11-15T23:04:31.079Z,12.30
2022-11-15T23:07:20.752Z,12.30
2022-11-15T23:10:28.660Z,12.30
2022-11-15T23:13:18.338Z,12.40
2022-11-15T23:16:33.471Z,12.40
2022-11-15T23:19:22.599Z,12.30
2022-11-15T23:22:28.987Z,12.30
2022-11-15T23:25:18.209Z,12.30
2022-11-15T23:28:07.638Z,12.30
2022-11-15T23:31:20.613Z,12.30
2022-11-15T23:34:11.697Z,12.30
2022-11-15T23:37:00.912Z,12.30
2022-11-15T23:39:49.780Z,12.30
2022-11-15T23:42:39.126Z,12.30
2022-11-15T23:45:28.035Z,12.30
2022-11-15T23:48:16.909Z,12.30
2022-11-15T23:51:09.040Z,12.30
2022-11-15T23:53:57.904Z,12.30
2022-11-15T23:56:47.004Z,12.30
